Terminal Aerodrome Forecast
Issued by NWS Dallas/Fort Worth, TX

Home | Current Version | Previous Version | Text Only | Print | Product List | Glossary On
Versions: 1 2 3 4 5 6 7 8 9 10 11 12 13 14 15 16 17 18 19 20 21 22 23 24 25 26 27 28 29 30 31 32
297
FTUS44 KFWD 250923 AAC
TAFDFW
TAF AMD
KDFW 250923Z 2509/2612 17005KT P6SM VCSH BKN015 BKN025 BKN090
     FM251200 33007KT P6SM -RA VCTS BKN022 OVC070CB
      TEMPO 2513/2515 4SM TSRA SCT025 OVC050CB
     FM251600 13008KT P6SM VCSH SCT025 OVC100
     FM252200 01010KT P6SM VCTS BKN040CB OVC100
     FM260300 02012KT P6SM -SHRA OVC040=

USA.gov is the U.S. government's official web portal to all federal, state and local government web resources and services.